logo
Rechercher aéroport 
image banner adimage banner adimage banner ad
image banner ad

SEER - Palpail

Situé à San Fernando, Ecuador

ICAO - , IATA -

Données fournies par Airmate  

Information générale

Coordonnées: N1°13'18" W78°52'6"
Élévation : 69 feet MSL.
Variation magnétique : -4° East
Voir autres Aéroports à Esmeraldas

Données opérationnelles

Special qualification required
Heure actuelle UTC:
Heure actuelle locale:
Météo à : - ( 0 km )
METAR: PAKX 231815Z AUTO 05004KT 1/4SM SN OVC003 M05/M05 A2984 RMK AO2 P0001
Voir NOTAMs / SUP AIP / TFR affectant cet aéroport [VIEW]
Fréquences de communication: [VIEW]

Pistes:

Identifiant RWYQFULongueur (ft)Largeur (ft)SurfaceLDA (ft)
22221°2957654GRAV
0441°2957654GRAV

Coordonnées de l'aéroport

Adresse: San Fernando Ecuador

Vue satellite de SEER